createdAt,value
2018-01-07T00:00:33.453Z,44.40
2018-01-07T00:03:03.249Z,39.30
2018-01-07T00:05:30.526Z,35.80
2018-01-07T00:07:59.185Z,37.25
2018-01-07T00:10:26.526Z,36.58
2018-01-07T00:12:53.801Z,34.97
2018-01-07T00:15:21.064Z,32.58
2018-01-07T00:17:48.333Z,32.45
2018-01-07T00:20:15.620Z,30.70
2018-01-07T00:22:42.913Z,31.98
2018-01-07T00:25:10.190Z,34.80
2018-01-07T00:27:37.467Z,37.50
2018-01-07T00:30:04.811Z,36.03
2018-01-07T00:32:32.083Z,36.83
2018-01-07T00:34:59.355Z,40.10
2018-01-07T00:37:26.586Z,40.17
2018-01-07T00:39:53.876Z,39.53
2018-01-07T00:42:21.130Z,39.28
2018-01-07T00:44:48.399Z,41.05
2018-01-07T00:47:15.892Z,40.53
2018-01-07T00:49:43.125Z,38.85
2018-01-07T00:52:10.368Z,39.10
2018-01-07T00:54:37.660Z,40.38
2018-01-07T00:57:04.915Z,40.90
2018-01-07T00:59:32.169Z,42.97
2018-01-07T01:01:59.469Z,37.67
2018-01-07T01:04:26.749Z,33.15
2018-01-07T01:06:54.020Z,34.58
2018-01-07T01:09:21.247Z,31.80
2018-01-07T01:11:48.532Z,35.65
2018-01-07T01:14:15.771Z,37.72
2018-01-07T01:16:43.049Z,35.17
2018-01-07T01:19:10.282Z,34.10
2018-01-07T01:21:37.559Z,33.92
2018-01-07T01:24:04.799Z,32.58
2018-01-07T01:26:32.067Z,33.90
2018-01-07T01:28:59.298Z,34.90
2018-01-07T01:31:26.568Z,34.15
2018-01-07T01:33:53.810Z,32.63
2018-01-07T01:36:21.085Z,34.05
2018-01-07T01:38:48.314Z,33.25
2018-01-07T01:41:15.594Z,28.83
2018-01-07T01:43:42.855Z,29.30
2018-01-07T01:46:10.127Z,35.17
2018-01-07T01:48:37.380Z,34.92
2018-01-07T01:51:04.653Z,39.65
2018-01-07T01:53:31.878Z,37.67
2018-01-07T01:55:59.149Z,40.30
2018-01-07T01:58:26.402Z,40.97
2018-01-07T02:00:53.674Z,37.50
2018-01-07T02:03:20.930Z,32.92
2018-01-07T02:05:48.159Z,33.80
2018-01-07T02:08:15.376Z,37.25
2018-01-07T02:10:42.640Z,36.50
2018-01-07T02:13:09.905Z,37.67
2018-01-07T02:15:37.128Z,42.50
2018-01-07T02:18:04.394Z,40.05
2018-01-07T02:20:31.670Z,45.83
2018-01-07T02:22:58.913Z,46.63
2018-01-07T02:25:26.142Z,58.03
2018-01-07T02:27:53.384Z,65.15
2018-01-07T02:30:20.599Z,67.65
2018-01-07T02:32:47.853Z,83.75
2018-01-07T02:35:15.082Z,85.80
2018-01-07T02:37:43.220Z,72.90
2018-01-07T02:40:10.462Z,73.50
2018-01-07T02:42:37.719Z,83.55
2018-01-07T02:45:04.949Z,79.32
2018-01-07T02:47:32.213Z,82.25
2018-01-07T02:49:59.444Z,51.33
2018-01-07T02:52:26.692Z,59.78
2018-01-07T02:54:53.953Z,53.58
2018-01-07T02:57:22.046Z,49.22
2018-01-07T02:59:49.264Z,65.37
2018-01-07T03:02:16.613Z,67.53
2018-01-07T03:04:43.844Z,73.30
2018-01-07T03:07:11.102Z,69.30
2018-01-07T03:09:38.340Z,53.10
2018-01-07T03:12:05.570Z,61.65
2018-01-07T03:14:32.833Z,67.22
2018-01-07T03:17:00.094Z,56.37
2018-01-07T03:19:27.321Z,60.88
2018-01-07T03:21:54.601Z,62.58
2018-01-07T03:24:21.854Z,66.95
2018-01-07T03:26:49.268Z,63.10
2018-01-07T03:29:16.555Z,67.30
2018-01-07T03:31:43.794Z,61.50
2018-01-07T03:34:11.030Z,66.97
2018-01-07T03:36:38.492Z,68.68
2018-01-07T03:39:05.716Z,77.20
2018-01-07T03:41:32.968Z,75.53
2018-01-07T03:44:00.247Z,61.35
2018-01-07T03:46:27.498Z,59.95
2018-01-07T03:48:54.742Z,62.20
2018-01-07T03:51:21.996Z,76.32
2018-01-07T03:53:49.263Z,76.55
2018-01-07T03:56:16.488Z,70.05
2018-01-07T03:58:43.752Z,60.92
2018-01-07T04:01:10.995Z,51.97
2018-01-07T04:03:38.248Z,49.20
2018-01-07T04:06:05.487Z,61.83
2018-01-07T04:08:32.999Z,57.30
2018-01-07T04:11:01.432Z,52.08
2018-01-07T04:13:28.691Z,51.42
2018-01-07T04:15:55.929Z,57.20
2018-01-07T04:18:23.191Z,53.20
2018-01-07T04:20:50.464Z,55.33
2018-01-07T04:23:17.712Z,49.63
2018-01-07T04:25:44.952Z,48.47
2018-01-07T04:28:12.233Z,56.67
2018-01-07T04:30:39.505Z,51.70
2018-01-07T04:33:06.743Z,56.55
2018-01-07T04:35:33.968Z,47.85
2018-01-07T04:38:01.260Z,59.00
2018-01-07T04:40:28.498Z,58.35
2018-01-07T04:42:55.729Z,60.88
2018-01-07T04:45:22.968Z,74.95
2018-01-07T04:47:50.185Z,69.15
2018-01-07T04:50:18.841Z,70.53
2018-01-07T04:52:46.072Z,66.78
2018-01-07T04:55:13.300Z,64.62
2018-01-07T04:57:40.543Z,67.53
2018-01-07T05:00:07.812Z,73.12
2018-01-07T05:02:35.049Z,78.62
2018-01-07T05:05:02.284Z,74.80
2018-01-07T05:07:29.514Z,74.45
2018-01-07T05:09:57.182Z,70.18
2018-01-07T05:12:25.249Z,86.35
2018-01-07T05:14:52.480Z,90.75
2018-01-07T05:17:19.705Z,82.97
2018-01-07T05:19:47.009Z,84.68
2018-01-07T05:22:14.234Z,87.72
2018-01-07T05:24:41.464Z,80.57
2018-01-07T05:27:08.817Z,89.10
2018-01-07T05:29:36.057Z,98.65
2018-01-07T05:32:03.637Z,90.82
2018-01-07T05:34:30.860Z,77.82
2018-01-07T05:36:58.508Z,62.60
2018-01-07T05:39:27.103Z,51.00
2018-01-07T05:41:55.250Z,67.22
2018-01-07T05:44:23.683Z,74.85
2018-01-07T05:46:50.939Z,86.80
2018-01-07T05:49:18.184Z,60.72
2018-01-07T05:51:45.449Z,75.07
2018-01-07T05:54:12.686Z,75.32
2018-01-07T05:56:39.983Z,68.25
2018-01-07T05:59:07.212Z,61.63
2018-01-07T06:01:34.570Z,64.43
2018-01-07T06:04:01.792Z,68.35
2018-01-07T06:06:29.040Z,57.25
2018-01-07T06:08:56.280Z,48.67
2018-01-07T06:11:23.520Z,65.47
2018-01-07T06:13:50.751Z,54.60
2018-01-07T06:16:17.989Z,53.53
2018-01-07T06:18:45.228Z,42.40
2018-01-07T06:21:15.838Z,60.88
2018-01-07T06:23:43.076Z,47.97
2018-01-07T06:26:10.317Z,69.00
2018-01-07T06:28:37.541Z,69.60
2018-01-07T06:31:04.772Z,75.18
2018-01-07T06:33:32.022Z,72.87
2018-01-07T06:35:59.249Z,63.38
2018-01-07T06:38:26.464Z,61.13
2018-01-07T06:40:53.693Z,58.63
2018-01-07T06:43:20.918Z,65.30
2018-01-07T06:45:48.185Z,59.67
2018-01-07T06:48:15.409Z,54.00
2018-01-07T06:50:42.644Z,52.35
2018-01-07T06:53:09.876Z,60.03
2018-01-07T06:55:37.109Z,53.05
2018-01-07T06:58:04.348Z,57.05
2018-01-07T07:00:31.589Z,61.35
2018-01-07T07:02:58.812Z,50.03
2018-01-07T07:05:26.036Z,58.87
2018-01-07T07:07:53.260Z,55.83
2018-01-07T07:10:20.489Z,54.25
2018-01-07T07:12:47.726Z,49.85
2018-01-07T07:15:14.961Z,52.30
2018-01-07T07:17:42.190Z,48.33
2018-01-07T07:20:10.086Z,51.22
2018-01-07T07:22:38.106Z,45.40
2018-01-07T07:25:05.339Z,49.83
2018-01-07T07:27:32.585Z,52.10
2018-01-07T07:29:59.813Z,51.72
2018-01-07T07:32:27.222Z,50.15
2018-01-07T07:34:54.463Z,44.45
2018-01-07T07:37:21.700Z,44.92
2018-01-07T07:39:48.930Z,48.58
2018-01-07T07:42:16.304Z,46.85
2018-01-07T07:44:44.035Z,42.28
2018-01-07T07:47:12.179Z,46.85
2018-01-07T07:49:40.014Z,36.95
2018-01-07T07:52:08.208Z,35.50
2018-01-07T07:54:35.443Z,43.87
2018-01-07T07:57:02.709Z,41.63
2018-01-07T07:59:29.977Z,42.20
2018-01-07T08:01:58.039Z,39.08
2018-01-07T08:04:25.323Z,40.75
2018-01-07T08:06:53.165Z,42.35
2018-01-07T08:09:21.444Z,40.42
2018-01-07T08:11:49.595Z,43.65
2018-01-07T08:14:16.825Z,44.47
2018-01-07T08:16:44.099Z,41.10
2018-01-07T08:19:11.324Z,41.10
2018-01-07T08:21:38.588Z,40.30
2018-01-07T08:24:05.838Z,36.00
2018-01-07T08:26:33.827Z,34.80
2018-01-07T08:29:01.062Z,33.28
2018-01-07T08:31:28.309Z,35.22
2018-01-07T08:33:55.540Z,33.28
2018-01-07T08:36:22.798Z,30.95
2018-01-07T08:38:50.061Z,29.30
2018-01-07T08:41:17.309Z,31.70
2018-01-07T08:43:44.582Z,29.02
2018-01-07T08:46:11.808Z,28.65
2018-01-07T08:48:39.057Z,25.33
2018-01-07T08:51:06.296Z,29.05
2018-01-07T08:53:33.526Z,30.85
2018-01-07T08:56:00.770Z,28.33
2018-01-07T08:58:28.000Z,28.70
2018-01-07T09:00:55.235Z,29.27
2018-01-07T09:03:22.501Z,28.75
2018-01-07T09:05:49.745Z,31.85
2018-01-07T09:08:17.012Z,29.17
2018-01-07T09:10:44.285Z,29.25
2018-01-07T09:13:11.533Z,29.55
2018-01-07T09:15:38.801Z,27.30
2018-01-07T09:18:06.063Z,30.15
2018-01-07T09:20:33.324Z,30.55
2018-01-07T09:23:00.743Z,29.05
2018-01-07T09:25:27.975Z,29.58
2018-01-07T09:27:55.223Z,30.02
2018-01-07T09:30:22.539Z,28.30
2018-01-07T09:32:49.764Z,29.63
2018-01-07T09:35:17.098Z,30.95
2018-01-07T09:37:44.306Z,30.08
2018-01-07T09:40:11.571Z,30.58
2018-01-07T09:42:38.811Z,31.73
2018-01-07T09:45:06.042Z,32.80
2018-01-07T09:47:33.289Z,28.55
2018-01-07T09:50:00.520Z,29.95
2018-01-07T09:52:27.769Z,29.25
2018-01-07T09:54:55.032Z,27.35
2018-01-07T09:57:22.313Z,35.03
2018-01-07T09:59:49.552Z,26.50
2018-01-07T10:02:16.784Z,28.70
2018-01-07T10:04:44.049Z,30.23
2018-01-07T10:07:11.300Z,28.83
2018-01-07T10:09:38.528Z,25.70
2018-01-07T10:12:05.777Z,26.12
2018-01-07T10:14:33.049Z,28.02
2018-01-07T10:17:00.276Z,27.25
2018-01-07T10:19:27.536Z,29.00
2018-01-07T10:21:54.842Z,27.30
2018-01-07T10:24:22.108Z,26.85
2018-01-07T10:26:49.341Z,27.55
2018-01-07T10:29:16.560Z,25.52
2018-01-07T10:31:43.825Z,28.83
2018-01-07T10:34:11.067Z,29.10
2018-01-07T10:36:38.325Z,28.05
2018-01-07T10:39:05.548Z,26.50
2018-01-07T10:41:32.799Z,29.52
2018-01-07T10:44:00.037Z,27.13
2018-01-07T10:46:27.273Z,29.55
2018-01-07T10:48:54.559Z,29.20
2018-01-07T10:51:21.861Z,29.80
2018-01-07T10:53:49.095Z,27.35
2018-01-07T10:56:16.756Z,27.00
2018-01-07T10:58:44.921Z,24.85
2018-01-07T11:01:17.859Z,22.95
2018-01-07T11:03:45.064Z,23.15
2018-01-07T11:06:12.306Z,21.67
2018-01-07T11:08:39.517Z,20.17
2018-01-07T11:11:07.592Z,21.20
2018-01-07T11:13:35.957Z,23.12
2018-01-07T11:16:03.188Z,20.30
2018-01-07T11:18:31.468Z,20.10
2018-01-07T11:21:00.171Z,20.15
2018-01-07T11:23:27.392Z,19.73
2018-01-07T11:25:54.626Z,21.00
2018-01-07T11:28:22.072Z,22.00
2018-01-07T11:30:50.074Z,20.17
2018-01-07T11:33:17.341Z,20.17
2018-01-07T11:35:44.564Z,20.75
2018-01-07T11:38:11.860Z,25.05
2018-01-07T11:40:39.060Z,21.85
2018-01-07T11:43:06.292Z,20.37
2018-01-07T11:45:33.515Z,19.65
2018-01-07T11:48:00.753Z,21.25
2018-01-07T11:50:28.446Z,20.33
2018-01-07T11:52:55.711Z,18.85
2018-01-07T11:55:22.925Z,18.98
2018-01-07T11:57:50.976Z,19.35
2018-01-07T12:00:18.222Z,18.85
2018-01-07T12:02:45.444Z,19.87
2018-01-07T12:05:12.667Z,20.20
2018-01-07T12:07:39.964Z,22.27
2018-01-07T12:10:07.136Z,20.27
2018-01-07T12:12:34.496Z,17.62
2018-01-07T12:15:01.709Z,18.10
2018-01-07T12:17:28.944Z,20.55
2018-01-07T12:19:56.260Z,18.50
2018-01-07T12:22:23.521Z,21.27
2018-01-07T12:24:50.724Z,18.58
2018-01-07T12:27:17.956Z,20.05
2018-01-07T12:29:46.110Z,16.87
2018-01-07T12:32:13.374Z,17.92
2018-01-07T12:34:41.295Z,17.90
2018-01-07T12:37:08.630Z,17.10
2018-01-07T12:39:37.016Z,15.32
2018-01-07T12:42:05.381Z,17.52
2018-01-07T12:44:32.625Z,17.33
2018-01-07T12:46:59.911Z,16.87
2018-01-07T12:49:27.259Z,16.20
2018-01-07T12:51:54.469Z,15.05
2018-01-07T12:54:21.701Z,13.48
2018-01-07T12:56:49.062Z,14.55
2018-01-07T12:59:16.425Z,15.50
2018-01-07T13:01:43.608Z,13.90
2018-01-07T13:04:10.849Z,16.42
2018-01-07T13:06:38.100Z,15.27
2018-01-07T13:09:05.328Z,16.73
2018-01-07T13:11:33.006Z,17.65
2018-01-07T13:14:00.229Z,16.35
2018-01-07T13:16:27.453Z,17.42
2018-01-07T13:18:55.150Z,15.15
2018-01-07T13:21:22.362Z,15.15
2018-01-07T13:23:49.630Z,15.45
2018-01-07T13:26:16.937Z,13.40
2018-01-07T13:28:44.203Z,16.00
2018-01-07T13:31:11.449Z,15.18
2018-01-07T13:33:38.678Z,15.00
2018-01-07T13:36:05.954Z,16.83
2018-01-07T13:38:33.173Z,13.93
2018-01-07T13:41:00.388Z,18.00
2018-01-07T13:43:27.677Z,15.52
2018-01-07T13:45:55.593Z,14.60
2018-01-07T13:48:22.804Z,14.20
2018-01-07T13:50:50.067Z,15.68
2018-01-07T13:53:17.325Z,15.82
2018-01-07T13:55:44.868Z,15.45
2018-01-07T13:58:12.128Z,16.60
2018-01-07T14:00:39.393Z,16.95
2018-01-07T14:03:06.616Z,13.90
2018-01-07T14:05:33.859Z,16.40
2018-01-07T14:08:01.120Z,16.45
2018-01-07T14:10:28.337Z,14.52
2018-01-07T14:12:55.568Z,16.85
2018-01-07T14:15:22.797Z,15.45
2018-01-07T14:17:50.878Z,17.20
2018-01-07T14:20:18.999Z,18.37
2018-01-07T14:22:46.263Z,15.02
2018-01-07T14:25:13.515Z,16.70
2018-01-07T14:27:40.767Z,15.00
2018-01-07T14:30:07.990Z,16.60
2018-01-07T14:32:35.223Z,17.87
2018-01-07T14:35:02.486Z,17.02
2018-01-07T14:37:29.698Z,16.67
2018-01-07T14:39:56.929Z,14.43
2018-01-07T14:42:24.194Z,14.10
2018-01-07T14:44:51.411Z,18.12
2018-01-07T14:47:18.636Z,15.23
2018-01-07T14:49:45.918Z,19.35
2018-01-07T14:52:13.166Z,15.85
2018-01-07T14:54:40.381Z,18.60
2018-01-07T14:57:07.597Z,17.40
2018-01-07T14:59:34.910Z,17.55
2018-01-07T15:02:02.164Z,16.67
2018-01-07T15:04:29.420Z,18.12
2018-01-07T15:06:56.644Z,16.90
2018-01-07T15:09:23.914Z,18.58
2018-01-07T15:11:52.469Z,17.20
2018-01-07T15:14:19.689Z,18.23
2018-01-07T15:16:47.729Z,16.05
2018-01-07T15:19:14.998Z,16.87
2018-01-07T15:21:42.231Z,18.70
2018-01-07T15:24:09.461Z,20.15
2018-01-07T15:26:36.694Z,18.20
2018-01-07T15:29:04.603Z,16.60
2018-01-07T15:31:32.501Z,17.73
2018-01-07T15:33:59.767Z,18.80
2018-01-07T15:36:27.532Z,16.00
2018-01-07T15:38:55.066Z,19.30
2018-01-07T15:41:22.326Z,20.08
2018-01-07T15:43:49.623Z,18.17
2018-01-07T15:46:17.783Z,21.30
2018-01-07T15:48:45.034Z,18.65
2018-01-07T15:51:12.469Z,16.25
2018-01-07T15:53:39.675Z,16.83
2018-01-07T15:56:06.914Z,20.40
2018-01-07T15:58:34.191Z,18.62
2018-01-07T16:01:01.455Z,15.77
2018-01-07T16:03:29.588Z,19.87
2018-01-07T16:05:56.862Z,19.20
2018-01-07T16:08:24.598Z,21.20
2018-01-07T16:10:51.871Z,19.35
2018-01-07T16:13:19.131Z,19.98
2018-01-07T16:15:46.396Z,19.00
2018-01-07T16:18:13.852Z,20.70
2018-01-07T16:20:41.158Z,20.52
2018-01-07T16:23:08.458Z,19.55
2018-01-07T16:25:35.689Z,19.55
2018-01-07T16:28:02.974Z,19.67
2018-01-07T16:30:30.298Z,19.75
2018-01-07T16:32:57.596Z,18.52
2018-01-07T16:35:24.923Z,19.62
2018-01-07T16:37:52.244Z,19.15
2018-01-07T16:40:19.547Z,19.15
2018-01-07T16:42:46.884Z,21.90
2018-01-07T16:45:14.176Z,20.23
2018-01-07T16:47:42.397Z,18.50
2018-01-07T16:50:09.650Z,20.80
2018-01-07T16:52:36.925Z,20.20
2018-01-07T16:55:04.178Z,18.52
2018-01-07T16:57:31.729Z,17.95
2018-01-07T16:59:59.078Z,16.27
2018-01-07T17:02:27.788Z,19.58
2018-01-07T17:04:55.279Z,16.12
2018-01-07T17:07:22.520Z,16.23
2018-01-07T17:09:49.800Z,15.48
2018-01-07T17:12:17.602Z,14.65
2018-01-07T17:14:44.922Z,13.10
2018-01-07T17:17:14.345Z,12.15
2018-01-07T17:19:41.615Z,12.40
2018-01-07T17:22:08.849Z,11.93
2018-01-07T17:24:36.152Z,11.00
2018-01-07T17:27:03.464Z,10.27
2018-01-07T17:29:30.736Z,9.60
2018-01-07T17:31:58.400Z,10.13
2018-01-07T17:34:25.679Z,10.20
2018-01-07T17:36:52.963Z,10.25
2018-01-07T17:39:20.234Z,9.40
2018-01-07T17:41:47.494Z,8.20
2018-01-07T17:44:15.569Z,8.15
2018-01-07T17:46:42.855Z,8.35
2018-01-07T17:49:11.108Z,7.47
2018-01-07T17:51:39.260Z,8.18
2018-01-07T17:54:06.527Z,8.43
2018-01-07T17:56:33.781Z,7.60
2018-01-07T17:59:01.091Z,8.93
2018-01-07T18:01:28.355Z,8.15
2018-01-07T18:03:55.614Z,7.50
2018-01-07T18:06:22.888Z,7.97
2018-01-07T18:08:50.169Z,8.93
2018-01-07T18:11:17.368Z,7.43
2018-01-07T18:13:44.644Z,7.68
2018-01-07T18:16:14.004Z,10.75
2018-01-07T18:18:41.275Z,10.98
2018-01-07T18:21:09.541Z,12.85
2018-01-07T18:23:37.820Z,13.02
2018-01-07T18:26:05.181Z,12.80
2018-01-07T18:28:34.122Z,14.15
2018-01-07T18:31:01.400Z,13.35
2018-01-07T18:33:29.276Z,9.95
2018-01-07T18:35:57.665Z,7.28
2018-01-07T18:38:25.597Z,8.02
2018-01-07T18:40:54.262Z,9.20
2018-01-07T18:43:21.778Z,7.07
2018-01-07T18:45:51.745Z,8.20
2018-01-07T18:48:19.004Z,8.32
2018-01-07T18:50:46.342Z,9.02
2018-01-07T18:53:14.395Z,8.32
2018-01-07T18:55:41.660Z,9.13
2018-01-07T18:58:09.601Z,8.15
2018-01-07T19:00:36.877Z,10.15
2018-01-07T19:03:04.158Z,10.00
2018-01-07T19:05:32.218Z,7.10
2018-01-07T19:07:59.495Z,8.88
2018-01-07T19:10:26.766Z,7.97
2018-01-07T19:12:54.049Z,9.48
2018-01-07T19:15:21.302Z,8.32
2018-01-07T19:17:48.570Z,8.90
2018-01-07T19:20:16.854Z,7.72
2018-01-07T19:25:17.816Z,9.40
2018-01-07T19:27:45.529Z,8.77
2018-01-07T19:30:12.854Z,11.40
2018-01-07T19:32:40.402Z,10.57
2018-01-07T19:35:07.753Z,10.00
2018-01-07T19:37:36.485Z,9.10
2018-01-07T19:40:03.770Z,10.20
2018-01-07T19:42:31.021Z,8.23
2018-01-07T19:44:58.299Z,11.45
2018-01-07T19:47:25.577Z,11.85
2018-01-07T19:49:54.188Z,11.80
2018-01-07T19:52:21.456Z,12.07
2018-01-07T19:54:48.720Z,12.63
2018-01-07T19:57:16.669Z,14.40
2018-01-07T19:59:43.927Z,14.45
2018-01-07T20:02:11.199Z,13.90
2018-01-07T20:04:38.455Z,13.45
2018-01-07T20:07:05.733Z,14.95
2018-01-07T20:09:33.822Z,13.20
2018-01-07T20:12:01.510Z,15.95
2018-01-07T20:14:28.767Z,12.63
2018-01-07T20:16:56.045Z,14.87
2018-01-07T20:19:24.135Z,13.65
2018-01-07T20:21:51.480Z,14.10
2018-01-07T20:24:18.730Z,14.45
2018-01-07T20:26:46.008Z,15.57
2018-01-07T20:29:13.276Z,15.50
2018-01-07T20:31:40.547Z,13.18
2018-01-07T20:34:07.811Z,14.13
2018-01-07T20:36:36.183Z,15.20
2018-01-07T20:39:03.629Z,15.48
2018-01-07T20:41:32.183Z,13.25
2018-01-07T20:43:59.486Z,14.63
2018-01-07T20:46:26.768Z,15.50
2018-01-07T20:48:55.040Z,15.23
2018-01-07T20:51:22.692Z,15.05
2018-01-07T20:53:49.958Z,14.93
2018-01-07T20:56:17.625Z,12.50
2018-01-07T20:58:44.902Z,17.40
2018-01-07T21:01:12.280Z,15.02
2018-01-07T21:03:39.628Z,13.82
2018-01-07T21:06:06.937Z,16.33
2018-01-07T21:08:35.213Z,16.25
2018-01-07T21:11:02.489Z,14.05
2018-01-07T21:13:30.526Z,13.65
2018-01-07T21:15:57.826Z,15.10
2018-01-07T21:18:25.403Z,14.87
2018-01-07T21:20:52.672Z,14.20
2018-01-07T21:23:20.831Z,14.25
2018-01-07T21:25:48.105Z,15.18
2018-01-07T21:28:15.478Z,15.18
2018-01-07T21:30:42.775Z,15.30
2018-01-07T21:33:10.076Z,14.90
2018-01-07T21:35:37.344Z,14.93
2018-01-07T21:38:04.628Z,14.50
2018-01-07T21:40:31.896Z,13.10
2018-01-07T21:42:59.951Z,12.75
2018-01-07T21:45:28.018Z,15.55
2018-01-07T21:47:55.291Z,16.50
2018-01-07T21:50:22.580Z,14.30
2018-01-07T21:52:49.864Z,15.18
2018-01-07T21:55:17.772Z,14.23
2018-01-07T21:57:45.208Z,14.32
2018-01-07T22:02:45.717Z,15.88
2018-01-07T22:05:15.692Z,14.95
2018-01-07T22:07:43.683Z,17.40
2018-01-07T22:10:10.952Z,16.05
2018-01-07T22:12:38.228Z,16.48
2018-01-07T22:15:05.554Z,14.40
2018-01-07T22:17:32.872Z,16.27
2018-01-07T22:20:00.137Z,15.63
2018-01-07T22:22:27.419Z,16.10
2018-01-07T22:24:55.352Z,16.20
2018-01-07T22:27:22.652Z,15.60
2018-01-07T22:29:49.912Z,15.13
2018-01-07T22:32:17.168Z,16.17
2018-01-07T22:34:44.431Z,15.30
2018-01-07T22:37:11.688Z,14.13
2018-01-07T22:39:39.004Z,15.45
2018-01-07T22:42:07.089Z,15.85
2018-01-07T22:44:34.374Z,17.00
2018-01-07T22:47:01.641Z,13.62
2018-01-07T22:49:28.922Z,14.27
2018-01-07T22:51:56.189Z,16.23
2018-01-07T22:54:23.457Z,14.25
2018-01-07T22:56:50.716Z,16.98
2018-01-07T22:59:18.017Z,15.02
2018-01-07T23:01:45.260Z,15.52
2018-01-07T23:04:12.533Z,16.55
2018-01-07T23:06:39.809Z,16.33
2018-01-07T23:09:07.087Z,15.50
2018-01-07T23:11:34.346Z,17.67
2018-01-07T23:14:01.639Z,17.40
2018-01-07T23:16:28.902Z,15.27
2018-01-07T23:18:56.167Z,15.38
2018-01-07T23:21:23.447Z,18.27
2018-01-07T23:23:50.706Z,17.87
2018-01-07T23:26:17.974Z,16.17
2018-01-07T23:28:45.239Z,16.95
2018-01-07T23:31:12.486Z,15.38
2018-01-07T23:33:39.748Z,16.02
2018-01-07T23:36:07.012Z,17.15
2018-01-07T23:38:34.265Z,15.25
2018-01-07T23:41:01.522Z,17.42
2018-01-07T23:43:28.770Z,18.00
2018-01-07T23:45:56.031Z,16.10
2018-01-07T23:48:23.306Z,16.58
2018-01-07T23:50:50.572Z,17.60
2018-01-07T23:53:17.788Z,19.05
2018-01-07T23:55:45.024Z,17.05
2018-01-07T23:58:12.294Z,17.08
